createdAt,value
2019-01-26T00:04:52.014Z,86.26
2019-01-26T00:07:24.491Z,85.35
2019-01-26T00:09:55.714Z,85.83
2019-01-26T00:12:32.365Z,85.33
2019-01-26T00:15:05.164Z,86.20
2019-01-26T00:17:33.950Z,85.74
2019-01-26T00:20:03.295Z,86.33
2019-01-26T00:22:33.523Z,85.38
2019-01-26T00:25:10.535Z,85.01
2019-01-26T00:27:47.436Z,85.00
2019-01-26T00:30:24.560Z,85.37
2019-01-26T00:32:59.995Z,84.75
2019-01-26T00:35:31.889Z,85.36
2019-01-26T00:38:03.315Z,85.54
2019-01-26T00:40:32.422Z,86.21
2019-01-26T00:43:01.700Z,87.33
2019-01-26T00:45:30.449Z,86.61
2019-01-26T00:47:58.956Z,85.84
2019-01-26T00:50:27.528Z,86.25
2019-01-26T00:52:58.463Z,87.36
2019-01-26T00:55:26.964Z,86.40
2019-01-26T00:57:55.914Z,85.91
2019-01-26T01:00:24.967Z,86.08
2019-01-26T01:02:53.507Z,85.85
2019-01-26T01:05:22.901Z,85.53
2019-01-26T01:07:51.649Z,85.59
2019-01-26T01:10:21.155Z,85.32
2019-01-26T01:12:51.672Z,85.69
2019-01-26T01:15:21.824Z,85.28
2019-01-26T01:17:51.844Z,85.34
2019-01-26T01:20:20.424Z,85.21
2019-01-26T01:22:49.249Z,86.44
2019-01-26T01:25:17.841Z,87.12
2019-01-26T01:27:46.360Z,86.72
2019-01-26T01:30:16.047Z,87.13
2019-01-26T01:32:44.563Z,86.66
2019-01-26T01:35:13.187Z,85.72
2019-01-26T01:37:41.913Z,85.25
2019-01-26T01:40:11.039Z,85.11
2019-01-26T01:42:39.503Z,84.41
2019-01-26T01:45:10.081Z,84.54
2019-01-26T01:47:38.655Z,84.44
2019-01-26T01:50:08.516Z,87.20
2019-01-26T01:52:37.132Z,88.09
2019-01-26T01:55:08.084Z,88.33
2019-01-26T01:57:36.671Z,87.61
2019-01-26T02:00:06.987Z,86.71
2019-01-26T02:02:35.553Z,86.33
2019-01-26T02:05:04.157Z,87.58
2019-01-26T02:07:32.869Z,87.07
2019-01-26T02:10:01.388Z,87.02
2019-01-26T02:12:29.904Z,86.73
2019-01-26T02:14:58.739Z,86.78
2019-01-26T02:17:27.208Z,88.22
2019-01-26T02:19:56.187Z,87.53
2019-01-26T02:22:24.845Z,87.08
2019-01-26T02:24:53.368Z,86.67
2019-01-26T02:27:23.224Z,86.82
2019-01-26T02:29:52.155Z,87.05
2019-01-26T02:32:20.716Z,85.98
2019-01-26T02:34:49.411Z,86.22
2019-01-26T02:37:17.997Z,85.79
2019-01-26T02:39:46.522Z,86.69
2019-01-26T02:42:14.950Z,86.20
2019-01-26T02:44:43.720Z,86.37
2019-01-26T02:47:12.209Z,86.20
2019-01-26T02:49:40.747Z,86.22
2019-01-26T02:52:09.548Z,85.68
2019-01-26T02:54:38.052Z,85.70
2019-01-26T02:57:06.706Z,85.94
2019-01-26T02:59:35.371Z,85.80
2019-01-26T03:02:04.002Z,85.53
2019-01-26T03:04:32.501Z,85.26
2019-01-26T03:07:01.692Z,85.80
2019-01-26T03:09:30.509Z,85.88
2019-01-26T03:11:59.919Z,85.64
2019-01-26T03:14:28.607Z,85.50
2019-01-26T03:16:57.189Z,85.51
2019-01-26T03:19:26.228Z,85.68
2019-01-26T03:21:54.835Z,86.16
2019-01-26T03:24:23.395Z,86.02
2019-01-26T03:26:51.909Z,86.62
2019-01-26T03:29:20.676Z,86.67
2019-01-26T03:31:49.429Z,86.32
2019-01-26T03:34:18.006Z,86.65
2019-01-26T03:36:46.627Z,86.82
2019-01-26T03:39:15.301Z,86.44
2019-01-26T03:41:43.903Z,86.12
2019-01-26T03:44:12.614Z,86.45
2019-01-26T03:46:41.224Z,86.19
2019-01-26T03:49:09.844Z,86.24
2019-01-26T03:51:38.914Z,86.00
2019-01-26T03:54:07.550Z,86.38
2019-01-26T03:56:36.764Z,85.91
2019-01-26T03:59:05.881Z,85.87
2019-01-26T04:01:34.448Z,86.40
2019-01-26T04:04:02.998Z,86.25
2019-01-26T04:06:31.601Z,86.86
2019-01-26T04:09:00.127Z,87.43
2019-01-26T04:11:28.756Z,87.93
2019-01-26T04:13:57.325Z,87.10
2019-01-26T04:16:25.880Z,87.21
2019-01-26T04:18:54.592Z,87.46
2019-01-26T04:21:23.216Z,87.80
2019-01-26T04:23:51.814Z,88.08
2019-01-26T04:26:21.027Z,88.01
2019-01-26T04:28:50.216Z,88.29
2019-01-26T04:31:19.101Z,88.86
2019-01-26T04:33:48.875Z,88.74
2019-01-26T04:36:18.129Z,88.05
2019-01-26T04:38:46.948Z,87.79
2019-01-26T04:41:15.600Z,87.64
2019-01-26T04:43:44.408Z,87.42
2019-01-26T04:46:13.062Z,88.29
2019-01-26T04:48:41.787Z,87.40
2019-01-26T04:51:10.503Z,87.23
2019-01-26T04:53:39.037Z,88.42
2019-01-26T04:56:07.630Z,88.23
2019-01-26T04:58:36.397Z,87.57
2019-01-26T05:01:05.639Z,88.01
2019-01-26T05:03:34.769Z,87.32
2019-01-26T05:06:03.494Z,86.65
2019-01-26T05:08:32.136Z,87.62
2019-01-26T05:11:00.653Z,87.43
2019-01-26T05:13:29.512Z,87.20
2019-01-26T05:15:58.188Z,88.24
2019-01-26T05:18:26.853Z,87.27
2019-01-26T05:20:55.699Z,87.69
2019-01-26T05:23:24.634Z,87.93
2019-01-26T05:25:53.213Z,88.21
2019-01-26T05:28:21.926Z,88.43
2019-01-26T05:30:51.046Z,88.81
2019-01-26T05:33:19.845Z,88.44
2019-01-26T05:35:48.565Z,88.16
2019-01-26T05:38:17.192Z,88.21
2019-01-26T05:40:45.655Z,88.42
2019-01-26T05:43:14.224Z,87.92
2019-01-26T05:45:43.226Z,88.16
2019-01-26T05:48:11.826Z,88.18
2019-01-26T05:50:40.595Z,88.83
2019-01-26T05:53:09.925Z,88.06
2019-01-26T05:55:38.599Z,88.42
2019-01-26T05:58:08.235Z,88.18
2019-01-26T06:00:37.317Z,87.95
2019-01-26T06:03:06.118Z,88.05
2019-01-26T06:05:34.882Z,87.79
2019-01-26T06:08:03.853Z,88.38
2019-01-26T06:10:32.415Z,88.11
2019-01-26T06:13:01.095Z,88.00
2019-01-26T06:15:29.798Z,87.42
2019-01-26T06:17:58.852Z,87.52
2019-01-26T06:20:27.620Z,87.61
2019-01-26T06:22:56.115Z,87.80
2019-01-26T06:25:24.703Z,87.39
2019-01-26T06:27:53.342Z,87.22
2019-01-26T06:30:25.571Z,87.14
2019-01-26T06:32:54.212Z,87.37
2019-01-26T06:35:22.824Z,87.86
2019-01-26T06:37:51.353Z,87.76
2019-01-26T06:40:20.993Z,87.63
2019-01-26T06:42:49.785Z,88.66
2019-01-26T06:45:19.038Z,88.22
2019-01-26T06:47:47.923Z,87.52
2019-01-26T06:50:19.527Z,87.11
2019-01-26T06:52:48.131Z,86.96
2019-01-26T06:55:17.632Z,86.47
2019-01-26T06:57:46.290Z,87.34
2019-01-26T07:00:16.442Z,86.69
2019-01-26T07:02:45.195Z,86.81
2019-01-26T07:05:52.080Z,86.90
2019-01-26T07:08:22.624Z,87.45
2019-01-26T07:10:51.269Z,87.41
2019-01-26T07:13:20.009Z,87.51
2019-01-26T07:15:54.560Z,87.33
2019-01-26T07:18:23.428Z,87.32
2019-01-26T07:20:52.355Z,87.70
2019-01-26T07:23:24.463Z,87.40
2019-01-26T07:25:53.227Z,87.22
2019-01-26T07:28:23.636Z,87.52
2019-01-26T07:30:55.082Z,87.60
2019-01-26T07:33:24.723Z,86.94
2019-01-26T07:35:53.645Z,87.29
2019-01-26T07:38:22.587Z,86.64
2019-01-26T07:40:51.996Z,87.07
2019-01-26T07:43:22.218Z,86.44
2019-01-26T07:46:00.478Z,86.04
2019-01-26T07:48:29.439Z,86.29
2019-01-26T07:50:58.359Z,86.21
2019-01-26T07:53:30.014Z,86.52
2019-01-26T07:55:59.454Z,86.46
2019-01-26T07:58:31.764Z,86.41
2019-01-26T08:01:13.759Z,86.26
2019-01-26T08:14:03.231Z,86.37
2019-01-26T08:19:50.221Z,86.48
2019-01-26T08:22:27.981Z,86.64
2019-01-26T08:25:39.832Z,86.10
2019-01-26T08:28:10.030Z,85.55
2019-01-26T08:31:01.305Z,85.77
2019-01-26T08:33:32.725Z,85.80
2019-01-26T08:36:02.821Z,86.91
2019-01-26T08:38:32.926Z,87.24
2019-01-26T08:41:04.429Z,87.05
2019-01-26T08:46:48.629Z,87.61
2019-01-26T08:49:21.080Z,87.74
2019-01-26T08:55:32.687Z,88.06
2019-01-26T08:58:28.281Z,88.29
2019-01-26T09:01:11.664Z,87.57
2019-01-26T09:04:08.738Z,87.07
2019-01-26T09:07:05.464Z,86.52
2019-01-26T09:09:51.414Z,86.42
2019-01-26T09:12:23.282Z,87.13
2019-01-26T09:15:03.637Z,87.45
2019-01-26T09:17:48.750Z,87.71
2019-01-26T09:20:44.803Z,86.57
2019-01-26T09:23:54.699Z,86.56
2019-01-26T09:26:44.958Z,87.27
2019-01-26T09:29:26.510Z,87.89
2019-01-26T09:32:02.528Z,88.68
2019-01-26T09:35:00.584Z,88.54
2019-01-26T09:37:30.657Z,88.60
2019-01-26T09:40:02.288Z,88.34
2019-01-26T09:42:35.994Z,88.08
2019-01-26T09:45:05.096Z,88.53
2019-01-26T09:47:35.464Z,88.30
2019-01-26T09:50:08.593Z,88.64
2019-01-26T09:52:43.846Z,88.30
2019-01-26T09:55:30.748Z,88.70
2019-01-26T09:57:53.675Z,88.34
2019-01-26T10:00:24.701Z,88.54
2019-01-26T10:02:56.700Z,88.43
2019-01-26T10:05:36.252Z,87.89
2019-01-26T10:08:10.873Z,87.15
2019-01-26T10:10:45.164Z,86.74
2019-01-26T10:13:21.887Z,86.13
2019-01-26T10:16:12.259Z,85.90
2019-01-26T10:18:45.611Z,87.77
2019-01-26T10:21:20.787Z,89.23
2019-01-26T10:33:03.493Z,88.45
2019-01-26T10:36:00.671Z,88.84
2019-01-26T10:38:54.092Z,88.84
2019-01-26T10:41:52.415Z,88.94
2019-01-26T10:44:31.792Z,89.21
2019-01-26T10:47:11.538Z,89.64
2019-01-26T10:49:44.588Z,89.65
2019-01-26T10:52:19.654Z,89.50
2019-01-26T10:54:49.208Z,88.61
2019-01-26T10:57:20.069Z,88.40
2019-01-26T10:59:50.511Z,89.12
2019-01-26T11:02:19.092Z,88.61
2019-01-26T11:04:47.450Z,88.01
2019-01-26T11:07:16.139Z,88.56
2019-01-26T11:09:45.980Z,88.72
2019-01-26T11:12:37.185Z,87.36
2019-01-26T11:15:06.227Z,87.80
2019-01-26T11:17:44.830Z,87.33
2019-01-26T11:20:14.311Z,87.40
2019-01-26T11:22:46.743Z,87.40
2019-01-26T11:25:15.658Z,87.81
2019-01-26T11:27:44.449Z,87.41
2019-01-26T11:30:13.090Z,87.95
2019-01-26T11:32:44.126Z,88.52
2019-01-26T11:35:14.040Z,87.48
2019-01-26T11:37:43.912Z,87.76
2019-01-26T11:40:19.055Z,88.39
2019-01-26T11:42:47.853Z,87.85
2019-01-26T11:45:25.108Z,88.06
2019-01-26T11:47:53.967Z,88.02
2019-01-26T11:50:28.917Z,88.03
2019-01-26T11:52:57.520Z,88.33
2019-01-26T11:55:33.305Z,88.54
2019-01-26T11:58:01.991Z,87.37
2019-01-26T12:00:49.325Z,87.24
2019-01-26T12:03:48.980Z,87.83
2019-01-26T12:06:21.544Z,87.14
2019-01-26T12:08:50.007Z,86.42
2019-01-26T12:11:18.363Z,86.33
2019-01-26T12:13:46.810Z,87.63
2019-01-26T12:16:15.248Z,87.60
2019-01-26T12:18:43.532Z,87.42
2019-01-26T12:21:12.323Z,86.74
2019-01-26T12:23:40.795Z,86.63
2019-01-26T12:26:09.136Z,86.13
2019-01-26T12:28:37.814Z,86.67
2019-01-26T12:31:06.215Z,86.65
2019-01-26T12:33:34.493Z,86.35
2019-01-26T12:36:02.768Z,85.22
2019-01-26T12:38:31.202Z,85.11
2019-01-26T12:40:59.547Z,85.08
2019-01-26T12:43:27.927Z,85.33
2019-01-26T12:45:56.349Z,84.90
2019-01-26T12:48:24.795Z,85.74
2019-01-26T12:50:53.119Z,86.55
2019-01-26T12:53:21.439Z,86.15
2019-01-26T12:55:49.735Z,84.79
2019-01-26T12:58:18.048Z,84.65
2019-01-26T13:00:46.478Z,85.25
2019-01-26T13:03:14.773Z,84.33
2019-01-26T13:05:43.029Z,84.74
2019-01-26T13:08:11.393Z,85.47
2019-01-26T13:10:41.456Z,85.81
2019-01-26T13:13:09.814Z,85.71
2019-01-26T13:15:38.351Z,85.44
2019-01-26T13:18:06.767Z,87.38
2019-01-26T13:20:35.079Z,87.86
2019-01-26T13:23:03.454Z,86.54
2019-01-26T13:25:31.761Z,86.31
2019-01-26T13:28:00.067Z,85.65
2019-01-26T13:30:28.521Z,85.73
2019-01-26T13:32:56.823Z,85.38
2019-01-26T13:35:25.190Z,84.80
2019-01-26T13:37:53.631Z,85.66
2019-01-26T13:40:21.971Z,85.58
2019-01-26T13:42:50.272Z,87.37
2019-01-26T13:45:18.635Z,86.35
2019-01-26T13:47:46.991Z,86.21
2019-01-26T13:50:16.168Z,86.72
2019-01-26T13:52:44.479Z,87.76
2019-01-26T13:55:14.012Z,86.42
2019-01-26T13:57:42.383Z,86.35
2019-01-26T14:00:13.611Z,85.54
2019-01-26T14:02:41.992Z,86.07
2019-01-26T14:05:10.300Z,85.78
2019-01-26T14:07:38.804Z,85.71
2019-01-26T14:10:07.370Z,85.88
2019-01-26T14:12:35.716Z,85.63
2019-01-26T14:15:04.197Z,85.53
2019-01-26T14:17:32.655Z,85.38
2019-01-26T14:20:01.082Z,86.25
2019-01-26T14:22:30.510Z,86.23
2019-01-26T14:24:58.876Z,86.21
2019-01-26T14:27:27.275Z,86.64
2019-01-26T14:29:55.876Z,86.04
2019-01-26T14:32:24.269Z,86.75
2019-01-26T14:34:52.683Z,87.10
2019-01-26T14:37:21.246Z,87.32
2019-01-26T14:39:49.780Z,86.79
2019-01-26T14:42:18.231Z,86.90
2019-01-26T14:44:47.536Z,86.38
2019-01-26T14:47:15.944Z,86.03
2019-01-26T14:49:44.479Z,85.90
2019-01-26T14:52:13.776Z,86.02
2019-01-26T14:54:42.168Z,86.21
2019-01-26T14:57:10.539Z,86.06
2019-01-26T14:59:39.076Z,85.20
2019-01-26T15:02:07.896Z,85.60
2019-01-26T15:04:36.294Z,85.28
2019-01-26T15:07:05.021Z,84.71
2019-01-26T15:09:33.472Z,85.34
2019-01-26T15:12:01.888Z,85.49
2019-01-26T15:14:30.369Z,85.44
2019-01-26T15:16:58.809Z,85.29
2019-01-26T15:19:27.343Z,85.31
2019-01-26T15:21:55.957Z,85.78
2019-01-26T15:24:24.426Z,85.45
2019-01-26T15:26:52.876Z,85.18
2019-01-26T15:29:21.402Z,85.50
2019-01-26T15:31:49.839Z,85.97
2019-01-26T15:34:18.268Z,85.98
2019-01-26T15:36:46.861Z,85.33
2019-01-26T15:39:15.204Z,85.48
2019-01-26T15:41:43.501Z,84.11
2019-01-26T15:44:11.967Z,84.53
2019-01-26T15:46:40.283Z,83.99
2019-01-26T15:49:08.579Z,83.97
2019-01-26T15:51:36.956Z,84.44
2019-01-26T15:54:05.227Z,84.47
2019-01-26T15:56:33.565Z,85.51
2019-01-26T15:59:01.995Z,86.11
2019-01-26T16:01:30.236Z,84.76
2019-01-26T16:03:58.543Z,84.07
2019-01-26T16:06:26.980Z,83.83
2019-01-26T16:08:55.283Z,85.04
2019-01-26T16:11:23.539Z,84.75
2019-01-26T16:13:53.276Z,84.77
2019-01-26T16:16:21.567Z,84.32
2019-01-26T16:18:49.976Z,85.00
2019-01-26T16:21:18.627Z,84.00
2019-01-26T16:23:46.891Z,85.23
2019-01-26T16:26:15.151Z,86.00
2019-01-26T16:28:43.563Z,85.28
2019-01-26T16:31:11.823Z,86.04
2019-01-26T16:33:40.112Z,84.43
2019-01-26T16:36:08.468Z,84.46
2019-01-26T16:38:36.809Z,83.77
2019-01-26T16:41:05.084Z,84.17
2019-01-26T16:43:33.547Z,83.02
2019-01-26T16:46:01.900Z,83.56
2019-01-26T16:48:30.161Z,82.33
2019-01-26T16:50:58.587Z,82.17
2019-01-26T16:53:26.894Z,82.02
2019-01-26T16:55:55.168Z,81.87
2019-01-26T16:58:23.615Z,81.75
2019-01-26T17:00:53.278Z,80.93
2019-01-26T17:03:21.593Z,81.20
2019-01-26T17:05:50.165Z,81.26
2019-01-26T17:08:18.567Z,81.55
2019-01-26T17:10:46.991Z,81.50
2019-01-26T17:13:15.455Z,81.80
2019-01-26T17:15:43.784Z,81.70
2019-01-26T17:18:13.783Z,81.49
2019-01-26T17:20:42.314Z,81.41
2019-01-26T17:23:10.879Z,81.26
2019-01-26T17:25:39.334Z,80.95
2019-01-26T17:28:07.850Z,81.22
2019-01-26T17:30:37.200Z,80.97
2019-01-26T17:33:07.513Z,81.10
2019-01-26T17:35:36.399Z,81.09
2019-01-26T17:38:04.751Z,81.11
2019-01-26T17:40:33.169Z,81.24
2019-01-26T17:43:01.614Z,82.89
2019-01-26T17:45:30.545Z,83.94
2019-01-26T17:47:59.892Z,82.69
2019-01-26T17:50:28.331Z,82.02
2019-01-26T17:52:59.036Z,83.18
2019-01-26T17:55:27.340Z,83.33
2019-01-26T17:57:55.696Z,82.84
2019-01-26T18:00:36.231Z,82.43
2019-01-26T18:03:04.634Z,82.17
2019-01-26T18:05:32.919Z,82.17
2019-01-26T18:08:01.316Z,82.45
2019-01-26T18:10:29.829Z,82.68
2019-01-26T18:12:58.231Z,83.32
2019-01-26T18:15:26.747Z,83.69
2019-01-26T18:17:55.592Z,83.71
2019-01-26T18:20:24.879Z,83.15
2019-01-26T18:22:55.542Z,82.61
2019-01-26T18:25:59.118Z,82.53
2019-01-26T18:28:27.278Z,82.41
2019-01-26T18:31:04.832Z,82.32
2019-01-26T18:33:35.007Z,82.26
2019-01-26T18:36:03.636Z,82.82
2019-01-26T18:38:38.022Z,82.48
2019-01-26T18:41:07.005Z,81.76
2019-01-26T18:43:56.312Z,82.28
2019-01-26T18:46:26.219Z,82.35
2019-01-26T18:48:55.539Z,82.68
2019-01-26T18:51:36.688Z,83.17
2019-01-26T18:54:08.176Z,82.46
2019-01-26T18:56:38.145Z,82.51
2019-01-26T18:59:06.708Z,82.62
2019-01-26T19:01:40.075Z,83.79
2019-01-26T19:04:19.204Z,84.29
2019-01-26T19:06:47.579Z,84.42
2019-01-26T19:09:15.985Z,84.19
2019-01-26T19:11:44.345Z,84.58
2019-01-26T19:14:12.717Z,84.09
2019-01-26T19:16:41.292Z,84.11
2019-01-26T19:19:09.700Z,83.56
2019-01-26T19:21:38.277Z,83.30
2019-01-26T19:24:06.932Z,83.94
2019-01-26T19:26:35.556Z,84.53
2019-01-26T19:29:04.326Z,84.61
2019-01-26T19:31:33.081Z,84.02
2019-01-26T19:34:01.588Z,84.15
2019-01-26T19:36:31.902Z,83.53
2019-01-26T19:39:00.256Z,83.71
2019-01-26T19:41:28.713Z,84.14
2019-01-26T19:43:57.028Z,84.07
2019-01-26T19:46:25.457Z,84.37
2019-01-26T19:48:54.037Z,84.94
2019-01-26T19:51:22.708Z,84.77
2019-01-26T19:53:52.275Z,85.56
2019-01-26T19:56:21.067Z,85.67
2019-01-26T19:58:49.481Z,85.86
2019-01-26T20:01:17.821Z,86.13
2019-01-26T20:03:46.327Z,85.34
2019-01-26T20:06:14.644Z,85.00
2019-01-26T20:08:42.944Z,85.04
2019-01-26T20:11:11.372Z,84.75
2019-01-26T20:13:39.693Z,85.38
2019-01-26T20:16:07.963Z,85.12
2019-01-26T20:18:37.871Z,85.20
2019-01-26T20:21:06.299Z,84.32
2019-01-26T20:23:34.591Z,84.62
2019-01-26T20:26:03.059Z,84.66
2019-01-26T20:28:31.880Z,85.02
2019-01-26T20:31:00.240Z,84.91
2019-01-26T20:33:28.747Z,86.09
2019-01-26T20:35:57.040Z,86.48
2019-01-26T20:38:25.447Z,85.57
2019-01-26T20:43:21.215Z,85.39
2019-01-26T20:45:49.516Z,84.94
2019-01-26T20:48:17.852Z,84.60
2019-01-26T20:50:46.268Z,84.39
2019-01-26T20:53:14.519Z,84.17
2019-01-26T20:55:42.816Z,84.89
2019-01-26T20:58:11.167Z,84.67
2019-01-26T21:00:39.583Z,85.26
2019-01-26T21:03:08.808Z,84.84
2019-01-26T21:05:37.275Z,84.29
2019-01-26T21:08:05.572Z,84.30
2019-01-26T21:10:33.978Z,84.45
2019-01-26T21:13:02.450Z,84.55
2019-01-26T21:15:30.831Z,84.78
2019-01-26T21:17:59.199Z,84.40
2019-01-26T21:20:27.752Z,84.40
2019-01-26T21:22:56.076Z,84.39
2019-01-26T21:25:24.347Z,84.99
2019-01-26T21:27:52.806Z,84.50
2019-01-26T21:30:22.053Z,84.84
2019-01-26T21:32:50.329Z,84.99
2019-01-26T21:35:18.671Z,85.09
2019-01-26T21:37:47.008Z,85.17
2019-01-26T21:40:16.559Z,84.70
2019-01-26T21:42:44.976Z,84.53
2019-01-26T21:45:13.467Z,84.32
2019-01-26T21:47:41.839Z,84.42
2019-01-26T21:50:11.876Z,85.60
2019-01-26T21:52:41.068Z,85.85
2019-01-26T21:55:09.584Z,85.92
2019-01-26T21:57:38.033Z,85.61
2019-01-26T22:00:10.719Z,85.53
2019-01-26T22:02:39.152Z,85.34
2019-01-26T22:05:07.944Z,85.38
2019-01-26T22:07:36.333Z,85.61
2019-01-26T22:10:05.131Z,85.10
2019-01-26T22:12:33.507Z,84.83
2019-01-26T22:15:01.811Z,84.82
2019-01-26T22:17:30.160Z,84.58
2019-01-26T22:19:58.560Z,84.42
2019-01-26T22:22:26.958Z,84.85
2019-01-26T22:24:55.449Z,85.03
2019-01-26T22:29:51.579Z,84.70
2019-01-26T22:32:20.150Z,84.69
2019-01-26T22:34:48.696Z,85.07
2019-01-26T22:37:19.928Z,84.79
2019-01-26T22:39:48.918Z,84.94
2019-01-26T22:42:17.674Z,84.85
2019-01-26T22:44:46.274Z,84.80
2019-01-26T22:47:14.742Z,84.71
2019-01-26T22:49:45.227Z,84.75
2019-01-26T22:52:13.793Z,84.64
2019-01-26T22:54:42.167Z,85.12
2019-01-26T22:57:10.581Z,85.65
2019-01-26T22:59:39.025Z,84.67
2019-01-26T23:02:10.538Z,84.95
2019-01-26T23:04:53.142Z,84.80
2019-01-26T23:07:41.799Z,84.43
2019-01-26T23:10:13.383Z,84.51
2019-01-26T23:12:48.911Z,84.68
2019-01-26T23:15:35.128Z,84.55
2019-01-26T23:18:08.129Z,84.54
2019-01-26T23:20:46.020Z,84.94
2019-01-26T23:23:22.091Z,84.63
2019-01-26T23:26:16.032Z,85.14
2019-01-26T23:29:03.534Z,85.51
2019-01-26T23:31:32.103Z,84.48
2019-01-26T23:34:00.680Z,84.77
2019-01-26T23:36:29.110Z,84.99
2019-01-26T23:39:02.205Z,84.22
2019-01-26T23:41:27.653Z,84.77
2019-01-26T23:43:56.023Z,84.99
2019-01-26T23:46:24.635Z,84.49
2019-01-26T23:48:53.087Z,84.08
2019-01-26T23:51:21.518Z,84.16
2019-01-26T23:53:50.318Z,84.28
2019-01-26T23:56:18.698Z,84.59
2019-01-26T23:58:47.549Z,84.69
